Portada
METAR-TAF:

METAR-TAF

Aeroports :

Campbeltown, Escòcia

latitud: 55-26-14N, longitud: 005-41-11W, altitud: 13 m

Observació

L'informe es va fer fa 3 hores i 12 minuts, a les 17:20 UTC
Vent 5 kt del Est/Nord-Est
Temperatura 4°C
Humitat 75%
Pressió 1015 hPa
Visibilitat 10 km o més
sense núvols per sota de 1500 mi sense presència de cumulonimbus.

METAR: EGEC 151720Z 07005KT CAVOK 04/00 Q1015

Hora: 20:32 (20:32 UTC)

Pronòstic

L'informe es va fer fa 6 hores i 31 minuts, a les 14:01 UTC
Pronòstic vàlid del 15 a les 15 UTC al 15 a les 18 UTC
Vent 8 kt del Nord
Visibilitat 10 km o més
Escasses núvols a una alçada de 4000 ft

TAF: EGEC 151401Z 1515/1518 36008KT 9999 FEW040

Observacions i pronòstics meteorològics de més de 4000 aeroports (METAR i TAF).

Les estacions disponibles són els punts grocs i vermells al mapa.

Posi el ratolí al punt desitjat per veure el nom de l'estació.

Feu clic per veure les observacions i els pronòstics meteorològics.

Per canviar el mapa: feu clic els botons verds amb una creu de color negre per apropar; al botó verd amb un guió per allunyar la imatge; o en les fletxes verdes per a mapes adjacents.


METAR-TAF: